sensor_id;sensor_type;location;lat;lon;timestamp;P1;durP1;ratioP1;P2;durP2;ratioP2
5295;SDS011;2670;42.720;23.336;2023-05-27T00:01:54;13.33;;;10.27;;
5295;SDS011;2670;42.720;23.336;2023-05-27T00:04:22;17.47;;;10.60;;
5295;SDS011;2670;42.720;23.336;2023-05-27T00:06:48;17.50;;;10.80;;
5295;SDS011;2670;42.720;23.336;2023-05-27T00:09:15;14.90;;;11.00;;
5295;SDS011;2670;42.720;23.336;2023-05-27T00:11:42;16.43;;;10.50;;
5295;SDS011;2670;42.720;23.336;2023-05-27T00:14:09;14.97;;;10.27;;
5295;SDS011;2670;42.720;23.336;2023-05-27T00:16:35;17.10;;;10.57;;
5295;SDS011;2670;42.720;23.336;2023-05-27T00:19:02;19.83;;;10.67;;
5295;SDS011;2670;42.720;23.336;2023-05-27T00:21:31;16.90;;;10.57;;
5295;SDS011;2670;42.720;23.336;2023-05-27T00:23:58;15.70;;;10.93;;
5295;SDS011;2670;42.720;23.336;2023-05-27T00:26:25;19.27;;;9.50;;
5295;SDS011;2670;42.720;23.336;2023-05-27T00:28:52;12.37;;;7.90;;
5295;SDS011;2670;42.720;23.336;2023-05-27T00:31:18;10.30;;;6.93;;
5295;SDS011;2670;42.720;23.336;2023-05-27T00:33:45;18.17;;;7.60;;
5295;SDS011;2670;42.720;23.336;2023-05-27T00:36:12;10.73;;;7.20;;
5295;SDS011;2670;42.720;23.336;2023-05-27T00:38:40;8.80;;;6.80;;
5295;SDS011;2670;42.720;23.336;2023-05-27T00:41:07;9.20;;;7.03;;
5295;SDS011;2670;42.720;23.336;2023-05-27T00:43:36;10.70;;;6.90;;
5295;SDS011;2670;42.720;23.336;2023-05-27T00:46:03;11.47;;;7.70;;
5295;SDS011;2670;42.720;23.336;2023-05-27T00:48:29;10.03;;;7.47;;
5295;SDS011;2670;42.720;23.336;2023-05-27T00:50:56;8.67;;;6.93;;
5295;SDS011;2670;42.720;23.336;2023-05-27T00:53:23;8.27;;;6.43;;
5295;SDS011;2670;42.720;23.336;2023-05-27T00:55:53;9.33;;;6.57;;
5295;SDS011;2670;42.720;23.336;2023-05-27T00:58:20;8.80;;;6.50;;
5295;SDS011;2670;42.720;23.336;2023-05-27T01:00:48;7.27;;;6.47;;
5295;SDS011;2670;42.720;23.336;2023-05-27T01:03:15;7.87;;;6.20;;
5295;SDS011;2670;42.720;23.336;2023-05-27T01:05:42;8.13;;;6.23;;
5295;SDS011;2670;42.720;23.336;2023-05-27T01:08:12;11.00;;;6.10;;
5295;SDS011;2670;42.720;23.336;2023-05-27T01:10:49;8.57;;;7.00;;
5295;SDS011;2670;42.720;23.336;2023-05-27T01:13:21;12.50;;;6.47;;
5295;SDS011;2670;42.720;23.336;2023-05-27T01:16:05;8.57;;;5.90;;
5295;SDS011;2670;42.720;23.336;2023-05-27T01:18:37;8.43;;;5.97;;
5295;SDS011;2670;42.720;23.336;2023-05-27T01:21:07;9.20;;;6.03;;
5295;SDS011;2670;42.720;23.336;2023-05-27T01:23:40;11.37;;;6.80;;
5295;SDS011;2670;42.720;23.336;2023-05-27T01:26:07;8.60;;;6.50;;
5295;SDS011;2670;42.720;23.336;2023-05-27T01:28:34;11.37;;;7.70;;
5295;SDS011;2670;42.720;23.336;2023-05-27T01:31:03;8.90;;;6.40;;
5295;SDS011;2670;42.720;23.336;2023-05-27T01:33:38;9.90;;;6.50;;
5295;SDS011;2670;42.720;23.336;2023-05-27T01:36:10;12.23;;;6.90;;
5295;SDS011;2670;42.720;23.336;2023-05-27T01:38:42;10.60;;;6.90;;
5295;SDS011;2670;42.720;23.336;2023-05-27T01:41:10;9.30;;;7.27;;
5295;SDS011;2670;42.720;23.336;2023-05-27T01:43:37;9.43;;;7.33;;
5295;SDS011;2670;42.720;23.336;2023-05-27T01:46:05;9.60;;;7.20;;
5295;SDS011;2670;42.720;23.336;2023-05-27T01:48:32;10.03;;;7.23;;
5295;SDS011;2670;42.720;23.336;2023-05-27T01:50:59;11.17;;;8.10;;
5295;SDS011;2670;42.720;23.336;2023-05-27T01:53:25;15.37;;;7.93;;
5295;SDS011;2670;42.720;23.336;2023-05-27T01:55:53;10.40;;;7.50;;
5295;SDS011;2670;42.720;23.336;2023-05-27T01:58:20;12.03;;;7.80;;
5295;SDS011;2670;42.720;23.336;2023-05-27T02:00:47;11.03;;;8.27;;
5295;SDS011;2670;42.720;23.336;2023-05-27T02:03:13;10.80;;;7.63;;
5295;SDS011;2670;42.720;23.336;2023-05-27T02:05:40;11.47;;;8.23;;
5295;SDS011;2670;42.720;23.336;2023-05-27T02:08:08;12.00;;;8.40;;
5295;SDS011;2670;42.720;23.336;2023-05-27T02:10:34;19.20;;;9.70;;
5295;SDS011;2670;42.720;23.336;2023-05-27T02:13:03;17.80;;;10.60;;
5295;SDS011;2670;42.720;23.336;2023-05-27T02:15:30;12.47;;;8.40;;
5295;SDS011;2670;42.720;23.336;2023-05-27T02:17:57;15.97;;;9.90;;
5295;SDS011;2670;42.720;23.336;2023-05-27T02:20:24;12.97;;;9.10;;
5295;SDS011;2670;42.720;23.336;2023-05-27T02:22:51;11.70;;;9.60;;
5295;SDS011;2670;42.720;23.336;2023-05-27T02:25:18;19.63;;;9.70;;
5295;SDS011;2670;42.720;23.336;2023-05-27T02:27:45;13.70;;;9.97;;
5295;SDS011;2670;42.720;23.336;2023-05-27T02:30:15;17.60;;;12.33;;
5295;SDS011;2670;42.720;23.336;2023-05-27T02:32:42;15.77;;;11.20;;
5295;SDS011;2670;42.720;23.336;2023-05-27T02:35:10;16.67;;;12.07;;
5295;SDS011;2670;42.720;23.336;2023-05-27T02:37:38;16.60;;;10.63;;
5295;SDS011;2670;42.720;23.336;2023-05-27T02:40:06;18.43;;;12.87;;
5295;SDS011;2670;42.720;23.336;2023-05-27T02:42:34;14.57;;;10.90;;
5295;SDS011;2670;42.720;23.336;2023-05-27T02:45:00;18.20;;;11.60;;
5295;SDS011;2670;42.720;23.336;2023-05-27T02:47:29;20.27;;;11.57;;
5295;SDS011;2670;42.720;23.336;2023-05-27T02:49:55;22.07;;;12.60;;
5295;SDS011;2670;42.720;23.336;2023-05-27T02:52:22;20.03;;;13.43;;
5295;SDS011;2670;42.720;23.336;2023-05-27T02:54:49;25.60;;;13.43;;
5295;SDS011;2670;42.720;23.336;2023-05-27T02:57:15;22.60;;;13.57;;
5295;SDS011;2670;42.720;23.336;2023-05-27T02:59:43;19.20;;;14.37;;
5295;SDS011;2670;42.720;23.336;2023-05-27T03:02:10;22.30;;;14.57;;
5295;SDS011;2670;42.720;23.336;2023-05-27T03:04:38;16.67;;;13.10;;
5295;SDS011;2670;42.720;23.336;2023-05-27T03:07:05;20.30;;;14.70;;
5295;SDS011;2670;42.720;23.336;2023-05-27T03:09:32;20.30;;;14.27;;
5295;SDS011;2670;42.720;23.336;2023-05-27T03:11:59;21.53;;;15.13;;
5295;SDS011;2670;42.720;23.336;2023-05-27T03:14:25;23.03;;;16.00;;
5295;SDS011;2670;42.720;23.336;2023-05-27T03:16:53;24.73;;;17.13;;
5295;SDS011;2670;42.720;23.336;2023-05-27T03:19:20;24.97;;;17.03;;
5295;SDS011;2670;42.720;23.336;2023-05-27T03:21:48;24.03;;;16.40;;
5295;SDS011;2670;42.720;23.336;2023-05-27T03:24:15;24.33;;;15.13;;
5295;SDS011;2670;42.720;23.336;2023-05-27T03:26:42;18.50;;;13.77;;
5295;SDS011;2670;42.720;23.336;2023-05-27T03:29:09;18.50;;;13.20;;
5295;SDS011;2670;42.720;23.336;2023-05-27T03:31:36;24.40;;;14.40;;
5295;SDS011;2670;42.720;23.336;2023-05-27T03:34:03;17.73;;;13.03;;
5295;SDS011;2670;42.720;23.336;2023-05-27T03:36:29;16.67;;;12.77;;
5295;SDS011;2670;42.720;23.336;2023-05-27T03:38:58;21.80;;;13.83;;
5295;SDS011;2670;42.720;23.336;2023-05-27T03:41:24;16.10;;;11.70;;
5295;SDS011;2670;42.720;23.336;2023-05-27T03:43:51;17.80;;;10.20;;
5295;SDS011;2670;42.720;23.336;2023-05-27T03:46:18;13.03;;;10.03;;
5295;SDS011;2670;42.720;23.336;2023-05-27T03:48:45;16.33;;;11.00;;
5295;SDS011;2670;42.720;23.336;2023-05-27T03:51:11;13.27;;;9.37;;
5295;SDS011;2670;42.720;23.336;2023-05-27T03:53:38;15.43;;;10.47;;
5295;SDS011;2670;42.720;23.336;2023-05-27T03:56:07;14.53;;;10.03;;
5295;SDS011;2670;42.720;23.336;2023-05-27T03:58:34;13.23;;;9.87;;
5295;SDS011;2670;42.720;23.336;2023-05-27T04:01:00;20.23;;;10.90;;
5295;SDS011;2670;42.720;23.336;2023-05-27T04:03:27;14.67;;;11.27;;
5295;SDS011;2670;42.720;23.336;2023-05-27T04:05:54;16.10;;;10.80;;
5295;SDS011;2670;42.720;23.336;2023-05-27T04:08:21;16.83;;;10.40;;
5295;SDS011;2670;42.720;23.336;2023-05-27T04:10:51;21.60;;;10.67;;
5295;SDS011;2670;42.720;23.336;2023-05-27T04:13:19;16.83;;;11.00;;
5295;SDS011;2670;42.720;23.336;2023-05-27T04:15:46;10.73;;;8.90;;
5295;SDS011;2670;42.720;23.336;2023-05-27T04:18:13;14.83;;;9.63;;
5295;SDS011;2670;42.720;23.336;2023-05-27T04:20:40;12.70;;;10.20;;
5295;SDS011;2670;42.720;23.336;2023-05-27T04:23:07;11.80;;;8.90;;
5295;SDS011;2670;42.720;23.336;2023-05-27T04:25:34;11.77;;;8.60;;
5295;SDS011;2670;42.720;23.336;2023-05-27T04:28:02;21.20;;;9.70;;
5295;SDS011;2670;42.720;23.336;2023-05-27T04:30:31;11.80;;;9.03;;
5295;SDS011;2670;42.720;23.336;2023-05-27T04:32:58;20.60;;;9.77;;
5295;SDS011;2670;42.720;23.336;2023-05-27T04:35:25;12.27;;;8.30;;
5295;SDS011;2670;42.720;23.336;2023-05-27T04:37:52;14.63;;;9.40;;
5295;SDS011;2670;42.720;23.336;2023-05-27T04:40:19;13.83;;;8.90;;
5295;SDS011;2670;42.720;23.336;2023-05-27T04:42:45;11.90;;;7.87;;
5295;SDS011;2670;42.720;23.336;2023-05-27T04:45:12;11.30;;;8.33;;
5295;SDS011;2670;42.720;23.336;2023-05-27T04:47:40;11.70;;;7.90;;
5295;SDS011;2670;42.720;23.336;2023-05-27T04:50:08;9.70;;;8.00;;
5295;SDS011;2670;42.720;23.336;2023-05-27T04:52:35;10.57;;;8.30;;
5295;SDS011;2670;42.720;23.336;2023-05-27T04:55:06;10.40;;;7.87;;
5295;SDS011;2670;42.720;23.336;2023-05-27T04:57:34;11.90;;;9.10;;
5295;SDS011;2670;42.720;23.336;2023-05-27T05:00:06;10.13;;;8.40;;
5295;SDS011;2670;42.720;23.336;2023-05-27T05:02:49;13.83;;;9.27;;
5295;SDS011;2670;42.720;23.336;2023-05-27T05:05:25;11.20;;;8.00;;
5295;SDS011;2670;42.720;23.336;2023-05-27T05:07:53;14.23;;;9.17;;
5295;SDS011;2670;42.720;23.336;2023-05-27T05:10:20;18.07;;;8.50;;
5295;SDS011;2670;42.720;23.336;2023-05-27T05:12:47;14.53;;;8.93;;
5295;SDS011;2670;42.720;23.336;2023-05-27T05:15:13;14.40;;;7.83;;
5295;SDS011;2670;42.720;23.336;2023-05-27T05:17:40;13.13;;;7.90;;
5295;SDS011;2670;42.720;23.336;2023-05-27T05:20:09;12.00;;;8.60;;
5295;SDS011;2670;42.720;23.336;2023-05-27T05:22:37;11.40;;;8.03;;
5295;SDS011;2670;42.720;23.336;2023-05-27T05:25:04;13.80;;;8.40;;
5295;SDS011;2670;42.720;23.336;2023-05-27T05:27:32;10.60;;;8.10;;
5295;SDS011;2670;42.720;23.336;2023-05-27T05:29:59;14.90;;;9.10;;
5295;SDS011;2670;42.720;23.336;2023-05-27T05:32:26;13.63;;;8.53;;
5295;SDS011;2670;42.720;23.336;2023-05-27T05:34:53;12.40;;;8.50;;
5295;SDS011;2670;42.720;23.336;2023-05-27T05:37:21;16.67;;;9.43;;
5295;SDS011;2670;42.720;23.336;2023-05-27T05:39:47;16.40;;;7.93;;
5295;SDS011;2670;42.720;23.336;2023-05-27T05:42:14;11.20;;;7.70;;
5295;SDS011;2670;42.720;23.336;2023-05-27T05:44:41;11.90;;;8.67;;
5295;SDS011;2670;42.720;23.336;2023-05-27T05:47:07;15.40;;;8.90;;
5295;SDS011;2670;42.720;23.336;2023-05-27T05:49:34;11.70;;;8.17;;
5295;SDS011;2670;42.720;23.336;2023-05-27T05:52:01;12.47;;;8.53;;
5295;SDS011;2670;42.720;23.336;2023-05-27T05:54:32;10.47;;;7.70;;
5295;SDS011;2670;42.720;23.336;2023-05-27T05:56:59;11.00;;;8.07;;
5295;SDS011;2670;42.720;23.336;2023-05-27T05:59:26;11.57;;;8.50;;
5295;SDS011;2670;42.720;23.336;2023-05-27T06:01:55;11.60;;;8.33;;
5295;SDS011;2670;42.720;23.336;2023-05-27T06:04:21;18.17;;;9.00;;
5295;SDS011;2670;42.720;23.336;2023-05-27T06:06:48;14.47;;;9.37;;
5295;SDS011;2670;42.720;23.336;2023-05-27T06:09:15;26.53;;;10.93;;
5295;SDS011;2670;42.720;23.336;2023-05-27T06:11:43;11.03;;;9.33;;
5295;SDS011;2670;42.720;23.336;2023-05-27T06:14:09;16.00;;;9.50;;
5295;SDS011;2670;42.720;23.336;2023-05-27T06:16:36;13.53;;;9.57;;
5295;SDS011;2670;42.720;23.336;2023-05-27T06:19:04;13.90;;;9.37;;
5295;SDS011;2670;42.720;23.336;2023-05-27T06:21:31;15.20;;;10.47;;
5295;SDS011;2670;42.720;23.336;2023-05-27T06:23:59;14.17;;;10.43;;
5295;SDS011;2670;42.720;23.336;2023-05-27T06:26:25;18.93;;;10.20;;
5295;SDS011;2670;42.720;23.336;2023-05-27T06:28:54;20.60;;;11.43;;
5295;SDS011;2670;42.720;23.336;2023-05-27T06:31:21;13.30;;;9.60;;
5295;SDS011;2670;42.720;23.336;2023-05-27T06:33:48;20.10;;;10.50;;
5295;SDS011;2670;42.720;23.336;2023-05-27T06:36:14;17.07;;;11.87;;
5295;SDS011;2670;42.720;23.336;2023-05-27T06:38:41;19.23;;;10.70;;
5295;SDS011;2670;42.720;23.336;2023-05-27T06:41:08;13.60;;;10.00;;
5295;SDS011;2670;42.720;23.336;2023-05-27T06:43:34;17.47;;;9.83;;
5295;SDS011;2670;42.720;23.336;2023-05-27T06:46:02;18.63;;;8.50;;
5295;SDS011;2670;42.720;23.336;2023-05-27T06:48:29;19.37;;;11.13;;
5295;SDS011;2670;42.720;23.336;2023-05-27T06:50:56;20.53;;;10.77;;
5295;SDS011;2670;42.720;23.336;2023-05-27T06:53:23;16.07;;;10.53;;
5295;SDS011;2670;42.720;23.336;2023-05-27T06:55:50;14.77;;;9.80;;
5295;SDS011;2670;42.720;23.336;2023-05-27T06:58:17;12.70;;;9.40;;
5295;SDS011;2670;42.720;23.336;2023-05-27T07:00:43;15.93;;;9.30;;
5295;SDS011;2670;42.720;23.336;2023-05-27T07:03:11;14.20;;;8.87;;
5295;SDS011;2670;42.720;23.336;2023-05-27T07:05:38;14.70;;;9.80;;
5295;SDS011;2670;42.720;23.336;2023-05-27T07:08:05;14.60;;;9.47;;
5295;SDS011;2670;42.720;23.336;2023-05-27T07:10:32;12.10;;;9.27;;
5295;SDS011;2670;42.720;23.336;2023-05-27T07:12:58;17.17;;;8.90;;
5295;SDS011;2670;42.720;23.336;2023-05-27T07:15:25;12.40;;;8.97;;
5295;SDS011;2670;42.720;23.336;2023-05-27T07:17:53;14.30;;;9.30;;
5295;SDS011;2670;42.720;23.336;2023-05-27T07:20:21;11.20;;;7.67;;
5295;SDS011;2670;42.720;23.336;2023-05-27T07:22:48;18.50;;;8.90;;
5295;SDS011;2670;42.720;23.336;2023-05-27T07:25:14;15.10;;;9.37;;
5295;SDS011;2670;42.720;23.336;2023-05-27T07:27:41;23.83;;;8.80;;
5295;SDS011;2670;42.720;23.336;2023-05-27T07:30:08;14.10;;;9.60;;
5295;SDS011;2670;42.720;23.336;2023-05-27T07:32:36;16.03;;;9.70;;
5295;SDS011;2670;42.720;23.336;2023-05-27T07:35:03;15.13;;;8.87;;
5295;SDS011;2670;42.720;23.336;2023-05-27T07:37:31;12.40;;;8.73;;
5295;SDS011;2670;42.720;23.336;2023-05-27T07:39:58;11.07;;;7.90;;
5295;SDS011;2670;42.720;23.336;2023-05-27T07:42:25;13.33;;;9.00;;
5295;SDS011;2670;42.720;23.336;2023-05-27T07:44:51;13.77;;;9.53;;
5295;SDS011;2670;42.720;23.336;2023-05-27T07:47:19;15.63;;;8.83;;
5295;SDS011;2670;42.720;23.336;2023-05-27T07:49:47;10.00;;;8.57;;
5295;SDS011;2670;42.720;23.336;2023-05-27T07:52:14;14.83;;;9.50;;
5295;SDS011;2670;42.720;23.336;2023-05-27T07:54:42;15.93;;;9.40;;
5295;SDS011;2670;42.720;23.336;2023-05-27T07:57:09;12.67;;;8.70;;
5295;SDS011;2670;42.720;23.336;2023-05-27T07:59:36;18.00;;;9.27;;
5295;SDS011;2670;42.720;23.336;2023-05-27T08:02:03;19.73;;;8.93;;
5295;SDS011;2670;42.720;23.336;2023-05-27T08:04:31;16.00;;;8.90;;
5295;SDS011;2670;42.720;23.336;2023-05-27T08:07:00;16.40;;;9.77;;
5295;SDS011;2670;42.720;23.336;2023-05-27T08:09:27;12.07;;;8.90;;
5295;SDS011;2670;42.720;23.336;2023-05-27T08:11:55;15.60;;;9.40;;
5295;SDS011;2670;42.720;23.336;2023-05-27T08:14:22;15.93;;;9.73;;
5295;SDS011;2670;42.720;23.336;2023-05-27T08:16:52;14.43;;;8.30;;
5295;SDS011;2670;42.720;23.336;2023-05-27T08:19:19;14.23;;;8.23;;
5295;SDS011;2670;42.720;23.336;2023-05-27T08:21:45;13.60;;;9.60;;
5295;SDS011;2670;42.720;23.336;2023-05-27T08:24:12;14.33;;;9.00;;
5295;SDS011;2670;42.720;23.336;2023-05-27T08:26:39;12.97;;;9.90;;
5295;SDS011;2670;42.720;23.336;2023-05-27T08:29:07;13.43;;;10.20;;
5295;SDS011;2670;42.720;23.336;2023-05-27T08:31:35;12.90;;;9.30;;
5295;SDS011;2670;42.720;23.336;2023-05-27T08:34:03;12.77;;;8.87;;
5295;SDS011;2670;42.720;23.336;2023-05-27T08:36:30;13.67;;;10.20;;
5295;SDS011;2670;42.720;23.336;2023-05-27T08:38:58;11.70;;;9.13;;
5295;SDS011;2670;42.720;23.336;2023-05-27T08:41:25;16.50;;;9.10;;
5295;SDS011;2670;42.720;23.336;2023-05-27T08:43:53;13.73;;;8.80;;
5295;SDS011;2670;42.720;23.336;2023-05-27T08:46:21;13.83;;;10.23;;
5295;SDS011;2670;42.720;23.336;2023-05-27T08:48:48;16.53;;;11.53;;
5295;SDS011;2670;42.720;23.336;2023-05-27T08:51:16;19.03;;;9.90;;
5295;SDS011;2670;42.720;23.336;2023-05-27T08:53:45;11.23;;;8.53;;
5295;SDS011;2670;42.720;23.336;2023-05-27T08:56:12;13.70;;;8.97;;
5295;SDS011;2670;42.720;23.336;2023-05-27T08:58:41;12.50;;;9.13;;
5295;SDS011;2670;42.720;23.336;2023-05-27T09:01:09;15.47;;;10.57;;
5295;SDS011;2670;42.720;23.336;2023-05-27T09:03:38;14.00;;;10.83;;
5295;SDS011;2670;42.720;23.336;2023-05-27T09:06:05;17.93;;;9.10;;
5295;SDS011;2670;42.720;23.336;2023-05-27T09:08:32;15.40;;;9.33;;
5295;SDS011;2670;42.720;23.336;2023-05-27T09:10:59;16.80;;;10.27;;
5295;SDS011;2670;42.720;23.336;2023-05-27T09:13:27;13.67;;;10.33;;
5295;SDS011;2670;42.720;23.336;2023-05-27T09:15:57;17.93;;;11.20;;
5295;SDS011;2670;42.720;23.336;2023-05-27T09:18:26;21.93;;;13.03;;
5295;SDS011;2670;42.720;23.336;2023-05-27T09:20:55;16.57;;;11.70;;
5295;SDS011;2670;42.720;23.336;2023-05-27T09:23:22;13.50;;;9.67;;
5295;SDS011;2670;42.720;23.336;2023-05-27T09:25:49;17.03;;;10.93;;
5295;SDS011;2670;42.720;23.336;2023-05-27T09:28:22;21.53;;;10.70;;
5295;SDS011;2670;42.720;23.336;2023-05-27T09:30:58;19.77;;;10.47;;
5295;SDS011;2670;42.720;23.336;2023-05-27T09:33:29;25.40;;;11.57;;
5295;SDS011;2670;42.720;23.336;2023-05-27T09:35:59;18.63;;;11.30;;
5295;SDS011;2670;42.720;23.336;2023-05-27T09:38:27;14.43;;;10.33;;
5295;SDS011;2670;42.720;23.336;2023-05-27T09:40:54;13.97;;;9.30;;
5295;SDS011;2670;42.720;23.336;2023-05-27T09:43:21;14.10;;;7.90;;
5295;SDS011;2670;42.720;23.336;2023-05-27T09:45:48;13.97;;;8.90;;
5295;SDS011;2670;42.720;23.336;2023-05-27T09:48:17;16.63;;;9.23;;
5295;SDS011;2670;42.720;23.336;2023-05-27T09:50:45;15.50;;;12.57;;
5295;SDS011;2670;42.720;23.336;2023-05-27T09:53:15;17.40;;;10.80;;
5295;SDS011;2670;42.720;23.336;2023-05-27T09:55:43;17.77;;;11.77;;
5295;SDS011;2670;42.720;23.336;2023-05-27T09:58:09;16.83;;;11.17;;
5295;SDS011;2670;42.720;23.336;2023-05-27T10:00:38;15.60;;;9.80;;
5295;SDS011;2670;42.720;23.336;2023-05-27T10:03:06;15.57;;;10.10;;
5295;SDS011;2670;42.720;23.336;2023-05-27T10:05:35;15.70;;;10.27;;
5295;SDS011;2670;42.720;23.336;2023-05-27T10:08:02;8.90;;;6.40;;
5295;SDS011;2670;42.720;23.336;2023-05-27T10:10:31;12.70;;;8.17;;
5295;SDS011;2670;42.720;23.336;2023-05-27T10:12:59;10.40;;;8.50;;
5295;SDS011;2670;42.720;23.336;2023-05-27T10:15:27;12.40;;;7.60;;
5295;SDS011;2670;42.720;23.336;2023-05-27T10:17:54;11.53;;;6.87;;
5295;SDS011;2670;42.720;23.336;2023-05-27T10:20:23;7.40;;;5.60;;
5295;SDS011;2670;42.720;23.336;2023-05-27T10:22:52;6.70;;;4.90;;
5295;SDS011;2670;42.720;23.336;2023-05-27T10:25:19;14.20;;;5.20;;
5295;SDS011;2670;42.720;23.336;2023-05-27T10:27:47;10.53;;;6.67;;
5295;SDS011;2670;42.720;23.336;2023-05-27T10:30:14;6.23;;;5.63;;
5295;SDS011;2670;42.720;23.336;2023-05-27T10:32:42;8.50;;;5.87;;
5295;SDS011;2670;42.720;23.336;2023-05-27T10:35:10;7.17;;;5.53;;
5295;SDS011;2670;42.720;23.336;2023-05-27T10:37:37;14.10;;;5.90;;
5295;SDS011;2670;42.720;23.336;2023-05-27T10:40:05;11.60;;;5.40;;
5295;SDS011;2670;42.720;23.336;2023-05-27T10:42:32;5.80;;;5.03;;
5295;SDS011;2670;42.720;23.336;2023-05-27T10:45:08;6.47;;;4.60;;
5295;SDS011;2670;42.720;23.336;2023-05-27T10:47:38;7.57;;;5.30;;
5295;SDS011;2670;42.720;23.336;2023-05-27T10:50:12;7.90;;;5.30;;
5295;SDS011;2670;42.720;23.336;2023-05-27T10:52:40;11.70;;;5.40;;
5295;SDS011;2670;42.720;23.336;2023-05-27T10:55:08;7.30;;;5.10;;
5295;SDS011;2670;42.720;23.336;2023-05-27T10:57:37;5.60;;;5.00;;
5295;SDS011;2670;42.720;23.336;2023-05-27T11:00:04;5.47;;;4.80;;
5295;SDS011;2670;42.720;23.336;2023-05-27T11:02:34;9.80;;;4.60;;
5295;SDS011;2670;42.720;23.336;2023-05-27T11:05:08;7.27;;;4.93;;
5295;SDS011;2670;42.720;23.336;2023-05-27T11:07:36;6.37;;;5.10;;
5295;SDS011;2670;42.720;23.336;2023-05-27T11:10:03;6.63;;;5.50;;
5295;SDS011;2670;42.720;23.336;2023-05-27T11:12:31;17.10;;;6.77;;
5295;SDS011;2670;42.720;23.336;2023-05-27T11:14:58;9.57;;;6.43;;
5295;SDS011;2670;42.720;23.336;2023-05-27T11:17:26;9.23;;;5.50;;
5295;SDS011;2670;42.720;23.336;2023-05-27T11:19:53;9.53;;;5.03;;
5295;SDS011;2670;42.720;23.336;2023-05-27T11:22:20;6.73;;;4.73;;
5295;SDS011;2670;42.720;23.336;2023-05-27T11:24:57;6.23;;;5.27;;
5295;SDS011;2670;42.720;23.336;2023-05-27T11:27:24;6.77;;;5.20;;
5295;SDS011;2670;42.720;23.336;2023-05-27T11:29:58;7.37;;;5.43;;
5295;SDS011;2670;42.720;23.336;2023-05-27T11:32:24;7.37;;;5.43;;
5295;SDS011;2670;42.720;23.336;2023-05-27T11:34:53;6.17;;;5.10;;
5295;SDS011;2670;42.720;23.336;2023-05-27T11:37:21;8.03;;;6.07;;
5295;SDS011;2670;42.720;23.336;2023-05-27T11:39:51;15.87;;;6.87;;
5295;SDS011;2670;42.720;23.336;2023-05-27T11:42:23;9.83;;;5.50;;
5295;SDS011;2670;42.720;23.336;2023-05-27T11:44:50;10.17;;;6.43;;
5295;SDS011;2670;42.720;23.336;2023-05-27T11:47:18;9.67;;;5.50;;
5295;SDS011;2670;42.720;23.336;2023-05-27T11:49:46;8.13;;;5.00;;
5295;SDS011;2670;42.720;23.336;2023-05-27T11:52:14;8.90;;;6.63;;
5295;SDS011;2670;42.720;23.336;2023-05-27T11:54:41;11.23;;;5.60;;
5295;SDS011;2670;42.720;23.336;2023-05-27T11:57:08;8.43;;;5.80;;
5295;SDS011;2670;42.720;23.336;2023-05-27T11:59:35;9.20;;;5.47;;
5295;SDS011;2670;42.720;23.336;2023-05-27T12:02:03;5.20;;;4.70;;
5295;SDS011;2670;42.720;23.336;2023-05-27T12:04:30;11.13;;;5.07;;
5295;SDS011;2670;42.720;23.336;2023-05-27T12:06:58;8.10;;;4.70;;
5295;SDS011;2670;42.720;23.336;2023-05-27T12:09:27;11.10;;;6.07;;
5295;SDS011;2670;42.720;23.336;2023-05-27T12:11:54;11.23;;;4.47;;
5295;SDS011;2670;42.720;23.336;2023-05-27T12:14:21;7.57;;;5.67;;
5295;SDS011;2670;42.720;23.336;2023-05-27T12:16:48;6.73;;;4.90;;
5295;SDS011;2670;42.720;23.336;2023-05-27T12:19:14;6.30;;;4.83;;
5295;SDS011;2670;42.720;23.336;2023-05-27T12:21:41;4.53;;;3.90;;
5295;SDS011;2670;42.720;23.336;2023-05-27T12:24:10;11.30;;;4.13;;
5295;SDS011;2670;42.720;23.336;2023-05-27T12:26:36;7.10;;;4.40;;
5295;SDS011;2670;42.720;23.336;2023-05-27T12:29:05;6.70;;;5.07;;
5295;SDS011;2670;42.720;23.336;2023-05-27T12:31:33;5.37;;;4.80;;
5295;SDS011;2670;42.720;23.336;2023-05-27T12:33:59;9.13;;;4.87;;
5295;SDS011;2670;42.720;23.336;2023-05-27T12:36:26;7.50;;;4.90;;
5295;SDS011;2670;42.720;23.336;2023-05-27T12:38:53;9.93;;;4.83;;
5295;SDS011;2670;42.720;23.336;2023-05-27T12:41:21;7.17;;;4.30;;
5295;SDS011;2670;42.720;23.336;2023-05-27T12:43:48;10.23;;;5.50;;
5295;SDS011;2670;42.720;23.336;2023-05-27T12:46:14;7.97;;;4.13;;
5295;SDS011;2670;42.720;23.336;2023-05-27T12:48:41;12.63;;;4.97;;
5295;SDS011;2670;42.720;23.336;2023-05-27T12:51:08;7.57;;;4.60;;
5295;SDS011;2670;42.720;23.336;2023-05-27T12:53:34;8.80;;;4.67;;
5295;SDS011;2670;42.720;23.336;2023-05-27T12:56:01;5.60;;;4.53;;
5295;SDS011;2670;42.720;23.336;2023-05-27T12:58:29;7.20;;;4.70;;
5295;SDS011;2670;42.720;23.336;2023-05-27T13:00:56;7.07;;;5.07;;
5295;SDS011;2670;42.720;23.336;2023-05-27T13:03:22;5.97;;;4.70;;
5295;SDS011;2670;42.720;23.336;2023-05-27T13:05:49;9.10;;;5.03;;
5295;SDS011;2670;42.720;23.336;2023-05-27T13:08:16;6.53;;;5.00;;
5295;SDS011;2670;42.720;23.336;2023-05-27T13:10:42;5.70;;;4.63;;
5295;SDS011;2670;42.720;23.336;2023-05-27T13:13:10;9.50;;;5.00;;
5295;SDS011;2670;42.720;23.336;2023-05-27T13:15:38;8.67;;;4.30;;
5295;SDS011;2670;42.720;23.336;2023-05-27T13:18:05;7.37;;;4.40;;
5295;SDS011;2670;42.720;23.336;2023-05-27T13:20:31;6.10;;;4.57;;
5295;SDS011;2670;42.720;23.336;2023-05-27T13:22:58;7.73;;;4.87;;
5295;SDS011;2670;42.720;23.336;2023-05-27T13:25:26;7.83;;;5.27;;
5295;SDS011;2670;42.720;23.336;2023-05-27T13:27:53;5.13;;;3.90;;
5295;SDS011;2670;42.720;23.336;2023-05-27T13:30:21;6.23;;;4.50;;
5295;SDS011;2670;42.720;23.336;2023-05-27T13:32:50;7.13;;;4.80;;
5295;SDS011;2670;42.720;23.336;2023-05-27T13:35:17;9.97;;;4.63;;
5295;SDS011;2670;42.720;23.336;2023-05-27T13:37:43;8.50;;;4.27;;
5295;SDS011;2670;42.720;23.336;2023-05-27T13:40:10;5.40;;;3.80;;
5295;SDS011;2670;42.720;23.336;2023-05-27T13:42:37;6.73;;;4.60;;
5295;SDS011;2670;42.720;23.336;2023-05-27T13:45:04;7.73;;;4.70;;
5295;SDS011;2670;42.720;23.336;2023-05-27T13:47:32;12.33;;;4.47;;
5295;SDS011;2670;42.720;23.336;2023-05-27T13:50:00;7.67;;;5.47;;
5295;SDS011;2670;42.720;23.336;2023-05-27T13:52:26;6.40;;;4.30;;
5295;SDS011;2670;42.720;23.336;2023-05-27T13:54:53;6.07;;;4.53;;
5295;SDS011;2670;42.720;23.336;2023-05-27T13:57:20;6.50;;;4.50;;
5295;SDS011;2670;42.720;23.336;2023-05-27T13:59:47;7.80;;;4.90;;
5295;SDS011;2670;42.720;23.336;2023-05-27T14:02:14;5.33;;;4.20;;
5295;SDS011;2670;42.720;23.336;2023-05-27T14:04:41;5.67;;;5.07;;
5295;SDS011;2670;42.720;23.336;2023-05-27T14:07:09;5.33;;;4.83;;
5295;SDS011;2670;42.720;23.336;2023-05-27T14:09:35;7.20;;;4.90;;
5295;SDS011;2670;42.720;23.336;2023-05-27T14:12:02;12.40;;;4.97;;
5295;SDS011;2670;42.720;23.336;2023-05-27T14:14:29;6.40;;;4.53;;
5295;SDS011;2670;42.720;23.336;2023-05-27T14:16:56;8.83;;;5.60;;
5295;SDS011;2670;42.720;23.336;2023-05-27T14:19:23;5.70;;;5.03;;
5295;SDS011;2670;42.720;23.336;2023-05-27T14:21:50;5.50;;;4.60;;
5295;SDS011;2670;42.720;23.336;2023-05-27T14:24:18;6.87;;;4.70;;
5295;SDS011;2670;42.720;23.336;2023-05-27T14:26:45;8.77;;;4.20;;
5295;SDS011;2670;42.720;23.336;2023-05-27T14:29:11;9.97;;;5.00;;
5295;SDS011;2670;42.720;23.336;2023-05-27T14:31:38;6.93;;;4.10;;
5295;SDS011;2670;42.720;23.336;2023-05-27T14:34:05;5.10;;;4.60;;
5295;SDS011;2670;42.720;23.336;2023-05-27T14:36:31;5.07;;;4.10;;
5295;SDS011;2670;42.720;23.336;2023-05-27T14:38:58;6.97;;;4.43;;
5295;SDS011;2670;42.720;23.336;2023-05-27T14:41:29;6.13;;;4.20;;
5295;SDS011;2670;42.720;23.336;2023-05-27T14:43:56;5.60;;;4.10;;
5295;SDS011;2670;42.720;23.336;2023-05-27T14:46:23;13.73;;;4.77;;
5295;SDS011;2670;42.720;23.336;2023-05-27T14:48:49;5.80;;;5.20;;
5295;SDS011;2670;42.720;23.336;2023-05-27T14:51:16;5.10;;;4.60;;